Time;durP1;ratioP1;P1;durP2;ratioP2;P2;SDS_P1;SDS_P2;PMS_P1;PMS_P2;Temp;Humidity;BMP_temperature;BMP_pressure;BME280_temperature;BME280_humidity;BME280_pressure;Samples;Min_cycle;Max_cycle;Signal;HPM_P1;HPM_P2
2023/10/25 00:02:01;;;;;;;46.57;3.37;;;;;;;22.91;55.48;98071.50;7316503;19;130295;-36
2023/10/25 00:04:26;;;;;;;51.50;3.88;;;;;;;22.90;55.67;98081.19;7317251;19;128837;-35
2023/10/25 00:06:52;;;;;;;50.83;3.97;;;;;;;22.79;55.30;98052.81;7315211;19;129594;-36
2023/10/25 00:09:17;;;;;;;58.20;4.25;;;;;;;22.88;55.61;98069.25;7317216;19;129299;-35
2023/10/25 00:11:42;;;;;;;45.00;3.53;;;;;;;22.89;55.26;98071.69;7315286;19;129348;-37
2023/10/25 00:14:08;;;;;;;30.55;2.83;;;;;;;22.89;55.23;98073.50;7316659;19;128918;-36
2023/10/25 00:16:34;;;;;;;41.57;3.60;;;;;;;22.81;53.40;98063.09;7316201;19;129653;-35
2023/10/25 00:18:59;;;;;;;93.20;5.70;;;;;;;22.79;52.86;98057.28;7316196;19;129207;-36
2023/10/25 00:21:25;;;;;;;41.87;3.57;;;;;;;22.96;52.19;98080.44;7315886;19;129282;-36
2023/10/25 00:23:50;;;;;;;58.70;4.00;;;;;;;22.89;52.10;98060.41;7316243;19;128808;-35
2023/10/25 00:26:16;;;;;;;38.30;3.13;;;;;;;23.06;51.62;98083.56;7317216;19;129364;-36
2023/10/25 00:28:41;;;;;;;78.33;4.90;;;;;;;23.11;51.83;98093.50;7315847;19;130442;-36
2023/10/25 00:31:06;;;;;;;29.70;2.50;;;;;;;23.10;52.10;98091.88;7316031;19;130409;-35
2023/10/25 00:33:32;;;;;;;26.57;2.43;;;;;;;23.06;53.46;98095.84;7316268;19;129212;-35
2023/10/25 00:35:57;;;;;;;74.27;5.17;;;;;;;23.00;54.02;98096.59;7315864;19;129036;-35
2023/10/25 00:38:23;;;;;;;53.60;3.57;;;;;;;23.00;53.65;98105.28;7316844;19;129231;-36
2023/10/25 00:40:48;;;;;;;51.28;3.85;;;;;;;22.97;54.38;98089.91;7315108;19;130465;-35
2023/10/25 00:43:14;;;;;;;31.38;2.88;;;;;;;22.95;54.52;98093.72;7316538;19;133235;-36
2023/10/25 00:45:54;;;;;;;56.40;3.70;;;;;;;22.85;55.10;98082.72;7315204;19;129278;-36
2023/10/25 00:48:19;;;;;;;82.07;5.07;;;;;;;22.78;54.97;98074.78;7315235;19;129751;-36
2023/10/25 00:50:44;;;;;;;43.73;3.57;;;;;;;22.92;55.35;98094.88;7314427;19;129492;-36
2023/10/25 00:53:10;;;;;;;38.53;2.90;;;;;;;22.92;54.97;98100.13;7315670;19;129376;-35
2023/10/25 00:55:35;;;;;;;28.52;2.40;;;;;;;22.92;55.62;98091.47;7313593;19;129176;-36
2023/10/25 00:58:01;;;;;;;63.13;4.30;;;;;;;22.90;55.45;98096.09;7314829;19;128969;-37
2023/10/25 01:00:27;;;;;;;30.77;2.63;;;;;;;22.89;55.79;98097.88;7315582;19;129772;-36
2023/10/25 01:02:52;;;;;;;56.97;3.88;;;;;;;22.89;55.49;98097.88;7310714;19;129007;-35
2023/10/25 01:05:18;;;;;;;29.50;2.60;;;;;;;22.82;53.87;98099.63;7315789;19;129155;-35
2023/10/25 01:07:43;;;;;;;53.20;3.53;;;;;;;22.87;52.77;98096.47;7315581;19;130103;-36
2023/10/25 01:10:09;;;;;;;42.03;3.30;;;;;;;22.94;52.55;98092.13;7315277;19;130287;-35
2023/10/25 01:12:34;;;;;;;47.00;3.27;;;;;;;22.98;51.92;98090.72;7313124;19;128835;-37
2023/10/25 01:15:00;;;;;;;63.50;3.93;;;;;;;23.01;51.82;98098.22;7312872;19;129475;-36
2023/10/25 01:17:25;;;;;;;35.97;2.65;;;;;;;23.07;51.65;98089.63;7315422;19;129085;-37
2023/10/25 01:19:50;;;;;;;51.40;3.57;;;;;;;23.12;51.86;98089.91;7314352;19;130182;-36
2023/10/25 01:22:16;;;;;;;34.42;2.72;;;;;;;22.94;52.70;98071.16;7313381;19;133447;-36
2023/10/25 01:24:42;;;;;;;65.23;3.97;;;;;;;23.01;53.68;98099.03;7314084;19;129484;-36
2023/10/25 01:27:08;;;;;;;53.35;3.55;;;;;;;22.95;54.17;98088.47;7315766;19;130774;-36
2023/10/25 01:29:33;;;;;;;71.57;4.83;;;;;;;22.95;54.11;98085.88;7314915;19;129267;-35
2023/10/25 01:31:59;;;;;;;42.58;3.03;;;;;;;22.94;54.31;98090.28;7313768;19;128846;-36
2023/10/25 01:34:24;;;;;;;82.57;4.88;;;;;;;22.93;54.61;98088.69;7314134;19;130008;-36
2023/10/25 01:36:49;;;;;;;40.17;3.03;;;;;;;22.92;54.65;98084.41;7314617;19;129538;-37
2023/10/25 01:39:15;;;;;;;17.40;1.90;;;;;;;22.80;55.29;98070.19;7314698;19;129621;-36
2023/10/25 01:41:40;;;;;;;31.05;2.30;;;;;;;22.89;55.31;98084.00;7312901;19;129210;-35
2023/10/25 01:44:05;;;;;;;66.47;3.93;;;;;;;22.90;54.85;98090.84;7314866;19;129505;-36
2023/10/25 01:46:31;;;;;;;82.90;5.10;;;;;;;22.89;55.02;98084.00;7315133;19;129142;-36
2023/10/25 01:48:56;;;;;;;54.83;3.77;;;;;;;22.90;55.45;98096.09;7313228;19;130321;-35
2023/10/25 01:51:21;;;;;;;32.17;2.37;;;;;;;22.88;55.54;98103.31;7313618;19;128953;-36
2023/10/25 01:53:47;;;;;;;65.30;4.13;;;;;;;22.79;53.68;98096.56;7314450;19;129089;-36
2023/10/25 01:56:12;;;;;;;25.00;2.40;;;;;;;22.86;52.29;98095.63;7315235;19;130108;-35
2023/10/25 01:58:37;;;;;;;41.93;2.70;;;;;;;22.93;52.20;98098.34;7312343;19;129130;-35
2023/10/25 02:01:05;;;;;;;71.77;4.20;;;;;;;22.91;51.99;98092.47;7313924;19;129635;-36
2023/10/25 02:03:30;;;;;;;67.65;4.20;;;;;;;23.01;51.81;98104.28;7314115;19;128897;-36
2023/10/25 02:05:55;;;;;;;51.30;3.50;;;;;;;23.03;51.13;98111.97;7314160;19;128969;-36
2023/10/25 02:08:20;;;;;;;28.95;2.15;;;;;;;22.92;51.42;98083.63;7313452;19;129930;-36
2023/10/25 02:10:47;;;;;;;63.37;3.80;;;;;;;23.07;52.89;98113.22;7311832;19;129935;-34
2023/10/25 02:13:12;;;;;;;40.83;2.73;;;;;;;23.01;53.30;98111.31;7313862;19;129501;-36
2023/10/25 02:15:37;;;;;;;32.87;2.23;;;;;;;22.97;54.15;98110.09;7310572;19;130082;-36
2023/10/25 02:18:03;;;;;;;63.30;4.03;;;;;;;22.86;54.05;98102.69;7312927;19;130362;-35
2023/10/25 02:20:29;;;;;;;79.33;4.37;;;;;;;22.93;54.62;98112.25;7312769;19;128958;-36
2023/10/25 02:22:54;;;;;;;52.80;3.53;;;;;;;22.94;54.21;98118.31;7310955;19;129313;-34
2023/10/25 02:25:20;;;;;;;40.43;2.90;;;;;;;22.82;54.38;98093.56;7312702;19;129592;-36
2023/10/25 02:27:45;;;;;;;25.67;2.03;;;;;;;22.88;55.03;98117.25;7312386;19;131084;-35
2023/10/25 02:30:11;;;;;;;72.37;4.17;;;;;;;22.87;54.84;98117.44;7311968;19;128830;-36
2023/10/25 02:32:36;;;;;;;60.20;3.73;;;;;;;22.86;55.63;98113.16;7310161;19;129753;-36
2023/10/25 02:35:01;;;;;;;44.40;3.00;;;;;;;22.87;55.38;98118.22;7309056;19;130229;-35
2023/10/25 02:37:26;;;;;;;28.90;2.27;;;;;;;22.87;55.35;98122.66;7312810;19;129769;-35
2023/10/25 02:39:52;;;;;;;80.57;4.47;;;;;;;22.86;55.55;98123.66;7312334;19;130135;-36
2023/10/25 02:42:17;;;;;;;66.83;3.97;;;;;;;22.87;55.54;98138.38;7311725;19;130338;-36
2023/10/25 02:44:42;;;;;;;32.30;2.17;;;;;;;22.75;53.79;98134.59;7311574;19;129619;-36
2023/10/25 02:47:08;;;;;;;53.63;3.43;;;;;;;22.84;52.75;98133.53;7311637;19;129452;-34
2023/10/25 02:49:33;;;;;;;93.83;5.70;;;;;;;22.93;52.54;98128.00;7310867;19;129628;-36
2023/10/25 02:51:59;;;;;;;53.28;3.33;;;;;;;22.83;52.24;98116.97;7311857;19;129558;-36
2023/10/25 02:54:24;;;;;;;38.00;2.70;;;;;;;23.01;52.24;98140.16;7311909;19;129638;-37
2023/10/25 02:56:49;;;;;;;41.77;2.77;;;;;;;23.01;51.25;98133.13;7304570;19;130436;-34
2023/10/25 02:59:15;;;;;;;45.05;2.92;;;;;;;23.07;52.80;98142.84;7311810;19;129051;-36
2023/10/25 03:01:40;;;;;;;35.63;2.58;;;;;;;23.01;53.55;98140.16;7311138;19;129112;-36
2023/10/25 03:04:06;;;;;;;34.03;2.58;;;;;;;22.96;53.61;98142.50;7311677;19;130143;-36
2023/10/25 03:06:31;;;;;;;78.93;4.30;;;;;;;22.94;54.69;98149.78;7311427;19;129211;-36
2023/10/25 03:08:56;;;;;;;52.80;3.30;;;;;;;22.92;54.53;98146.50;7311596;19;129736;-37
2023/10/25 03:11:22;;;;;;;28.03;2.17;;;;;;;22.92;54.55;98154.38;7311382;19;129773;-36
2023/10/25 03:13:47;;;;;;;33.27;2.30;;;;;;;22.91;54.57;98150.13;7312079;19;129026;-35
2023/10/25 03:16:13;;;;;;;85.93;4.77;;;;;;;22.90;54.78;98154.56;7312122;19;130319;-37
2023/10/25 03:18:38;;;;;;;25.00;1.97;;;;;;;22.88;54.99;98160.97;7311648;19;129113;-35
2023/10/25 03:21:04;;;;;;;28.80;2.20;;;;;;;22.87;55.73;98154.91;7311159;19;129305;-35
2023/10/25 03:23:30;;;;;;;44.23;2.83;;;;;;;22.87;55.19;98154.13;7311815;19;129215;-36
2023/10/25 03:26:02;;;;;;;59.90;3.53;;;;;;;22.88;55.43;98150.50;7312844;19;130156;-36
2023/10/25 03:28:27;;;;;;;42.05;2.80;;;;;;;22.85;55.62;98156.09;7309746;19;129648;-36
2023/10/25 03:30:53;;;;;;;31.03;2.23;;;;;;;22.74;52.91;98149.50;7310139;19;129284;-36
2023/10/25 03:33:18;;;;;;;29.05;2.00;;;;;;;22.78;52.19;98144.72;7311265;19;129403;-36
2023/10/25 03:35:51;;;;;;;76.93;4.23;;;;;;;22.88;51.93;98153.09;7308606;19;129096;-37
2023/10/25 03:38:16;;;;;;;45.70;2.97;;;;;;;22.94;51.80;98150.56;7311540;19;129470;-35
2023/10/25 03:40:42;;;;;;;50.27;2.97;;;;;;;22.85;52.04;98130.72;7309443;19;128949;-36
2023/10/25 03:43:07;;;;;;;59.83;3.57;;;;;;;23.00;51.28;98154.28;7310620;19;129633;-37
2023/10/25 03:45:33;;;;;;;52.10;3.23;;;;;;;22.93;52.91;98137.66;7311088;19;130346;-37
2023/10/25 03:47:58;;;;;;;59.00;3.67;;;;;;;22.98;53.09;98156.25;7311724;19;129631;-35
2023/10/25 03:50:24;;;;;;;31.30;2.13;;;;;;;22.94;53.46;98155.00;7309298;19;128850;-36
2023/10/25 03:52:50;;;;;;;20.60;1.85;;;;;;;22.90;54.57;98158.97;7306858;19;129523;-36
2023/10/25 03:55:15;;;;;;;77.07;4.27;;;;;;;22.91;54.30;98152.75;7309052;19;130236;-35
2023/10/25 03:57:40;;;;;;;30.37;2.10;;;;;;;22.80;54.46;98145.34;7311925;19;129027;-35
2023/10/25 04:00:07;;;;;;;34.40;2.27;;;;;;;22.88;55.16;98160.97;7310507;19;129511;-37
2023/10/25 04:02:32;;;;;;;43.43;2.67;;;;;;;22.86;55.09;98162.94;7307823;19;130157;-36
2023/10/25 04:04:57;;;;;;;85.03;4.68;;;;;;;22.85;55.55;98161.34;7309677;19;130425;-36
2023/10/25 04:07:23;;;;;;;55.50;3.37;;;;;;;22.83;55.15;98169.38;7310518;19;129003;-37
2023/10/25 04:09:48;;;;;;;20.27;1.77;;;;;;;22.79;55.47;98162.88;7309603;19;129066;-36
2023/10/25 04:12:13;;;;;;;58.20;3.33;;;;;;;22.84;55.88;98164.97;7308555;19;130954;-35
2023/10/25 04:14:45;;;;;;;54.70;3.03;;;;;;;22.80;56.08;98167.13;7308869;19;130010;-35
2023/10/25 04:17:10;;;;;;;40.35;2.67;;;;;;;22.78;54.19;98166.50;7311846;19;129358;-34
2023/10/25 04:19:37;;;;;;;35.17;2.67;;;;;;;22.78;52.47;98157.81;7309983;19;130918;-35
2023/10/25 04:22:02;;;;;;;74.50;4.40;;;;;;;22.86;52.32;98166.41;7307286;19;130191;-36
2023/10/25 04:24:28;;;;;;;61.77;3.77;;;;;;;22.91;51.73;98157.97;7310614;19;130410;-36
2023/10/25 04:26:53;;;;;;;33.75;2.03;;;;;;;22.95;51.73;98151.38;7308699;19;129423;-35
2023/10/25 04:29:18;;;;;;;20.13;1.53;;;;;;;22.92;51.48;98147.31;7308588;19;129823;-37
2023/10/25 04:31:44;;;;;;;80.60;4.17;;;;;;;23.01;52.92;98150.66;7307005;19;129516;-35
2023/10/25 04:34:09;;;;;;;54.77;3.30;;;;;;;22.94;53.23;98142.69;7308978;19;129982;-34
2023/10/25 04:36:34;;;;;;;60.53;3.43;;;;;;;22.92;53.91;98139.44;7309070;19;129479;-36
2023/10/25 04:39:00;;;;;;;38.47;2.50;;;;;;;22.92;53.90;98130.78;7310144;19;129651;-35
2023/10/25 04:41:25;;;;;;;79.47;4.13;;;;;;;22.79;54.15;98109.66;7313306;19;130145;-36
2023/10/25 04:43:51;;;;;;;61.10;3.37;;;;;;;22.88;55.14;98121.66;7315885;19;129641;-37
2023/10/25 04:46:16;;;;;;;35.67;2.33;;;;;;;22.75;54.93;98103.16;7315615;19;128956;-36
2023/10/25 04:48:42;;;;;;;143.30;7.80;;;;;;;22.83;55.30;98129.25;7307983;19;129568;-36
2023/10/25 04:51:13;;;;;;;93.17;5.00;;;;;;;22.86;54.91;98134.13;7314202;19;130091;-36
2023/10/25 04:53:39;;;;;;;33.20;2.30;;;;;;;22.85;55.44;98129.91;7314453;19;130299;-35
2023/10/25 04:56:04;;;;;;;56.15;3.63;;;;;;;22.84;54.97;98136.94;7313351;19;128622;-36
2023/10/25 04:58:30;;;;;;;41.83;2.57;;;;;;;22.84;55.37;98136.13;7314216;19;130466;-36
2023/10/25 05:00:55;;;;;;;68.27;3.77;;;;;;;22.84;55.52;98125.66;7312730;19;129659;-36
2023/10/25 05:03:20;;;;;;;52.77;3.27;;;;;;;22.76;53.55;98130.97;7313374;19;129243;-36
2023/10/25 05:05:46;;;;;;;41.37;2.63;;;;;;;22.77;52.56;98128.19;7314233;19;129244;-36
2023/10/25 05:08:12;;;;;;;59.77;3.50;;;;;;;22.89;51.61;98125.91;7313863;19;129110;-35
2023/10/25 05:10:38;;;;;;;88.80;4.40;;;;;;;22.97;51.15;98128.44;7310750;19;131969;-36
2023/10/25 05:13:04;;;;;;;44.50;2.73;;;;;;;23.01;50.93;98129.69;7312506;19;131063;-35
2023/10/25 05:15:31;;;;;;;39.13;2.37;;;;;;;22.93;51.85;98114.06;7309849;19;130196;-35
2023/10/25 05:17:56;;;;;;;29.88;1.77;;;;;;;22.99;52.70;98140.34;7313618;19;129155;-36
2023/10/25 05:20:22;;;;;;;69.40;3.97;;;;;;;22.96;52.98;98142.50;7306969;19;129340;-37
2023/10/25 05:22:50;;;;;;;57.70;3.30;;;;;;;22.93;53.37;98140.25;7310959;19;129177;-37
2023/10/25 05:25:16;;;;;;;69.40;4.07;;;;;;;22.88;53.49;98138.19;7308606;19;129960;-35
2023/10/25 05:27:42;;;;;;;38.73;2.37;;;;;;;22.91;53.78;98139.63;7313125;19;129967;-35
2023/10/25 05:30:09;;;;;;;71.63;4.28;;;;;;;22.90;54.09;98143.25;7311421;19;129429;-35
2023/10/25 05:32:36;;;;;;;31.17;2.00;;;;;;;22.90;54.65;98138.00;7312725;19;131469;-35
2023/10/25 05:35:03;;;;;;;37.08;2.30;;;;;;;22.78;54.84;98124.56;7312038;19;129478;-36
2023/10/25 05:37:30;;;;;;;35.45;2.10;;;;;;;22.78;54.63;98134.22;7311232;19;129583;-36
2023/10/25 05:39:56;;;;;;;66.13;3.55;;;;;;;22.85;55.28;98141.19;7313904;19;129253;-36
2023/10/25 05:42:23;;;;;;;33.33;2.10;;;;;;;22.85;55.12;98150.84;7313671;19;130448;-35
2023/10/25 05:44:54;;;;;;;19.35;1.40;;;;;;;22.87;55.08;98148.88;7314148;19;128977;-37
2023/10/25 05:47:21;;;;;;;25.98;1.88;;;;;;;22.84;54.81;98144.00;7313665;19;129132;-35
2023/10/25 05:49:47;;;;;;;83.88;4.32;;;;;;;22.74;53.14;98146.09;7313120;19;130843;-36
2023/10/25 05:52:14;;;;;;;45.80;2.83;;;;;;;22.83;52.32;98152.84;7310583;19;131170;-36
2023/10/25 05:54:40;;;;;;;55.47;3.22;;;;;;;22.77;52.11;98130.81;7314174;19;130424;-36
2023/10/25 05:57:06;;;;;;;50.13;2.95;;;;;;;22.93;51.89;98148.94;7312544;19;129715;-36
2023/10/25 05:59:31;;;;;;;111.97;6.20;;;;;;;23.09;52.01;98155.78;7314249;19;130773;-36
2023/10/25 06:02:14;;;;;;;40.60;2.47;;;;;;;23.01;52.51;98161.13;7313424;19;131035;-36
2023/10/25 06:04:42;;;;;;;27.92;1.88;;;;;;;22.95;52.68;98159.25;7315757;19;128947;-36
2023/10/25 06:07:10;;;;;;;40.95;2.38;;;;;;;22.91;53.26;98157.97;7313943;19;129117;-35
2023/10/25 06:09:39;;;;;;;65.75;4.30;;;;;;;22.90;54.03;98164.22;7312312;19;130342;-35
2023/10/25 06:12:05;;;;;;;59.35;3.17;;;;;;;22.88;54.41;98160.97;7312161;19;131072;-36
2023/10/25 06:14:31;;;;;;;46.03;2.78;;;;;;;22.88;54.61;98168.84;7314065;19;129055;-35
2023/10/25 06:16:59;;;;;;;31.53;1.93;;;;;;;22.86;54.61;98157.72;7314103;19;129453;-34
2023/10/25 06:19:25;;;;;;;49.67;2.85;;;;;;;22.86;54.60;98160.34;7312527;19;129849;-35
2023/10/25 06:21:51;;;;;;;68.75;3.47;;;;;;;22.84;54.79;98146.63;7312535;19;129607;-36
2023/10/25 06:24:16;;;;;;;41.60;2.87;;;;;;;22.85;54.84;98161.34;7314764;19;129001;-36
2023/10/25 06:26:42;;;;;;;36.87;2.13;;;;;;;22.83;55.29;98164.13;7314156;19;128957;-34
2023/10/25 06:29:07;;;;;;;65.67;3.77;;;;;;;22.82;55.44;98166.94;7313344;19;130359;-35
2023/10/25 06:31:33;;;;;;;45.07;2.60;;;;;;;22.81;55.30;98167.91;7310793;19;129215;-35
2023/10/25 06:33:58;;;;;;;30.07;1.87;;;;;;;22.70;53.36;98174.44;7314796;19;129764;-36
2023/10/25 06:36:23;;;;;;;32.75;1.92;;;;;;;22.77;52.05;98169.28;7311220;19;129322;-37
2023/10/25 06:38:49;;;;;;;34.67;2.23;;;;;;;22.87;51.66;98169.84;7313044;19;130166;-34
2023/10/25 06:41:16;;;;;;;75.47;4.00;;;;;;;22.93;51.43;98176.97;7311211;19;130097;-36
2023/10/25 06:43:42;;;;;;;45.72;2.67;;;;;;;23.06;51.77;98174.50;7312097;19;128843;-36
2023/10/25 06:46:08;;;;;;;43.80;2.53;;;;;;;23.01;52.36;98182.09;7312801;19;129113;-34
2023/10/25 06:48:33;;;;;;;62.47;3.30;;;;;;;22.95;53.24;98193.31;7313032;19;129301;-35
2023/10/25 06:50:59;;;;;;;36.63;2.10;;;;;;;22.91;53.46;98189.44;7312968;19;130450;-37
2023/10/25 06:53:25;;;;;;;47.67;2.57;;;;;;;22.89;53.52;98199.31;7311720;19;129023;-34
2023/10/25 06:55:51;;;;;;;12.30;1.00;;;;;;;22.87;53.77;98198.66;7311083;19;129032;-36
2023/10/25 06:58:17;;;;;;;55.17;3.17;;;;;;;22.75;54.55;98179.13;7311619;19;130094;-36
2023/10/25 07:00:42;;;;;;;36.00;2.15;;;;;;;22.87;54.73;98193.41;7312470;19;130512;-36
2023/10/25 07:03:10;;;;;;;35.87;2.30;;;;;;;22.86;54.41;98189.16;7312974;19;129803;-35
2023/10/25 07:05:36;;;;;;;54.17;2.90;;;;;;;22.83;54.68;98190.34;7311139;19;129023;-34
2023/10/25 07:08:02;;;;;;;75.30;3.83;;;;;;;22.84;54.49;98193.78;7312502;19;130736;-36
2023/10/25 07:10:28;;;;;;;29.27;1.70;;;;;;;22.82;55.08;98190.53;7312819;19;130355;-36
2023/10/25 07:12:53;;;;;;;44.23;2.77;;;;;;;22.82;55.22;98193.16;7310044;19;129408;-35
2023/10/25 07:15:18;;;;;;;48.00;2.83;;;;;;;22.67;55.34;98159.09;7310680;19;129049;-37
2023/10/25 07:17:49;;;;;;;88.75;4.40;;;;;;;22.77;55.18;98187.63;7310741;19;130027;-36
2023/10/25 07:20:15;;;;;;;34.58;2.20;;;;;;;;;;7312670;19;130302;-36
2023/10/25 07:22:40;;;;;;;32.10;1.93;;;;;;;22.85;51.92;98195.41;7311081;19;129362;-36
2023/10/25 07:25:06;;;;;;;25.52;1.80;;;;;;;22.84;51.15;98185.94;7312828;19;128987;-36
2023/10/25 07:27:32;;;;;;;100.00;4.73;;;;;;;22.94;51.13;98200.38;7309480;19;130008;-36
2023/10/25 07:29:57;;;;;;;15.33;1.10;;;;;;;23.03;51.96;98203.69;7312086;19;130303;-34
2023/10/25 07:32:23;;;;;;;45.97;2.63;;;;;;;22.95;52.69;98194.16;7309756;19;128941;-36
2023/10/25 07:34:48;;;;;;;29.20;1.73;;;;;;;22.88;53.43;98187.19;7311199;19;129585;-33
2023/10/25 07:37:15;;;;;;;94.13;4.87;;;;;;;22.88;53.67;98202.91;7310581;19;129721;-35
2023/10/25 07:39:40;;;;;;;23.30;1.50;;;;;;;22.86;53.65;98204.88;7309533;19;131436;-35
2023/10/25 07:42:06;;;;;;;33.97;2.07;;;;;;;22.86;54.53;98207.50;7309420;19;129505;-34
2023/10/25 07:44:31;;;;;;;37.60;2.10;;;;;;;22.85;54.39;98198.84;7311237;19;128856;-35
2023/10/25 07:46:57;;;;;;;73.57;3.87;;;;;;;22.85;54.81;98203.25;7311605;19;130285;-36
2023/10/25 07:49:22;;;;;;;40.37;2.43;;;;;;;22.83;54.62;98194.75;7310803;19;130374;-36
2023/10/25 07:51:48;;;;;;;34.50;2.00;;;;;;;22.83;54.67;98198.22;7308468;19;128996;-34
2023/10/25 07:54:13;;;;;;;58.90;3.13;;;;;;;22.82;54.92;98198.41;7310279;19;129466;-35
2023/10/25 07:56:38;;;;;;;42.63;2.50;;;;;;;22.82;55.36;98195.78;7307920;19;129344;-37
2023/10/25 07:59:04;;;;;;;30.57;1.73;;;;;;;22.81;55.24;98188.88;7310394;19;129426;-36
2023/10/25 08:01:29;;;;;;;43.80;2.37;;;;;;;22.82;54.71;98195.78;7306837;19;129207;-35
2023/10/25 08:03:55;;;;;;;52.85;2.70;;;;;;;22.74;52.88;98188.81;7310560;19;128907;-34
2023/10/25 08:06:20;;;;;;;76.87;3.97;;;;;;;22.83;52.12;98184.28;7310968;19;130547;-36
2023/10/25 08:08:48;;;;;;;39.37;2.40;;;;;;;22.86;51.81;98178.69;7310678;19;130308;-36
2023/10/25 08:11:14;;;;;;;52.15;2.97;;;;;;;22.96;50.75;98180.03;7307768;19;129246;-35
2023/10/25 08:13:40;;;;;;;62.77;3.13;;;;;;;23.01;51.66;98184.72;7309135;19;129028;-35
2023/10/25 08:16:06;;;;;;;42.10;2.28;;;;;;;22.97;52.07;98186.09;7316817;19;130078;-36
2023/10/25 08:18:32;;;;;;;26.03;1.60;;;;;;;22.88;52.99;98185.38;7316827;19;130165;-32
2023/10/25 08:20:58;;;;;;;36.47;2.03;;;;;;;22.87;53.09;98185.56;7315742;19;128687;-35
2023/10/25 08:23:24;;;;;;;93.50;4.63;;;;;;;22.71;53.34;98162.19;7316851;19;129178;-35
2023/10/25 08:25:51;;;;;;;43.40;2.60;;;;;;;22.83;54.25;98181.66;7316218;19;130786;-34
2023/10/25 08:28:16;;;;;;;45.15;2.58;;;;;;;22.82;54.23;98173.00;7316424;19;130504;-36
2023/10/25 08:30:42;;;;;;;32.63;2.00;;;;;;;22.83;54.66;98173.81;7316745;19;129064;-36
2023/10/25 08:33:07;;;;;;;58.47;2.90;;;;;;;22.83;54.48;98173.81;7316745;19;128885;-36
2023/10/25 08:35:32;;;;;;;38.55;2.08;;;;;;;22.67;54.72;98153.03;7315342;19;129019;-34
2023/10/25 08:37:58;;;;;;;28.37;1.70;;;;;;;22.80;54.85;98179.41;7316275;19;129383;-35
2023/10/25 08:40:24;;;;;;;37.28;2.38;;;;;;;22.81;54.58;98191.50;7315780;19;129372;-36
2023/10/25 08:42:50;;;;;;;59.28;3.05;;;;;;;22.77;54.70;98179.78;7314403;19;128830;-36
2023/10/25 08:45:16;;;;;;;35.95;2.05;;;;;;;22.77;55.00;98192.88;7317438;19;129733;-35
2023/10/25 08:47:42;;;;;;;32.83;1.87;;;;;;;22.79;55.16;98193.53;7314955;19;130631;-35
2023/10/25 08:50:08;;;;;;;40.50;2.17;;;;;;;22.68;52.77;98186.09;7315993;19;129502;-35
2023/10/25 08:52:37;;;;;;;43.05;2.33;;;;;;;22.78;51.83;98182.22;7314698;19;129791;-36
2023/10/25 08:55:03;;;;;;;31.20;1.92;;;;;;;22.73;51.85;98153.13;7316159;19;130335;-35
2023/10/25 08:57:30;;;;;;;51.72;2.83;;;;;;;22.91;51.54;98176.31;7314542;19;129241;-35
2023/10/25 08:59:55;;;;;;;29.75;1.63;;;;;;;23.01;51.50;98177.69;7314368;19;128723;-35
2023/10/25 09:02:21;;;;;;;89.77;4.33;;;;;;;22.95;52.77;98180.22;7314401;19;129443;-36
2023/10/25 09:04:59;;;;;;;10.07;0.80;;;;;;;22.89;53.74;98179.13;7316177;19;129387;-35
2023/10/25 09:07:35;;;;;;;52.78;3.13;;;;;;;22.86;53.77;98178.69;7315648;19;132621;-35
2023/10/25 09:10:03;;;;;;;8.98;0.77;;;;;;;22.83;54.16;98179.03;7313473;19;129629;-34
2023/10/25 09:12:30;;;;;;;41.08;2.53;;;;;;;22.84;54.35;98185.94;7313319;19;129213;-35
2023/10/25 09:14:55;;;;;;;53.90;2.78;;;;;;;22.82;54.65;98183.50;7315393;19;129064;-36
2023/10/25 09:17:21;;;;;;;70.50;3.90;;;;;;;22.82;54.80;98180.06;7316211;19;131560;-35
2023/10/25 09:19:50;;;;;;;38.33;2.13;;;;;;;22.80;54.64;98177.63;7314587;19;129103;-35
2023/10/25 09:22:25;;;;;;;46.80;2.50;;;;;;;22.82;55.44;98177.44;7312876;19;129798;-36
2023/10/25 09:24:52;;;;;;;71.28;3.67;;;;;;;22.77;54.53;98171.91;7313876;19;130290;-35
2023/10/25 09:27:19;;;;;;;60.08;3.35;;;;;;;22.74;55.22;98169.66;7313794;19;130318;-34
2023/10/25 09:29:45;;;;;;;28.27;1.60;;;;;;;22.76;55.33;98172.91;7314994;19;129360;-34
2023/10/25 09:32:11;;;;;;;47.23;2.50;;;;;;;22.77;55.28;98175.38;7312434;19;129368;-35
2023/10/25 09:34:36;;;;;;;78.38;3.92;;;;;;;22.60;53.45;98173.91;7314842;19;130408;-34
2023/10/25 09:37:11;;;;;;;37.23;2.00;;;;;;;22.76;52.54;98176.34;7313333;19;130294;-36
2023/10/25 09:39:37;;;;;;;60.40;3.78;;;;;;;22.85;51.72;98184.91;7314513;19;128931;-34
2023/10/25 09:42:06;;;;;;;33.63;1.87;;;;;;;22.89;51.34;98175.72;7313047;19;129628;-34
2023/10/25 09:44:37;;;;;;;58.17;2.88;;;;;;;22.99;51.56;98178.88;7313332;19;130201;-36
2023/10/25 09:47:06;;;;;;;67.03;3.55;;;;;;;22.77;52.65;98153.56;7314102;19;130451;-35
2023/10/25 09:49:33;;;;;;;70.63;4.03;;;;;;;22.87;53.33;98183.72;7315499;19;129445;-34
2023/10/25 09:52:11;;;;;;;30.25;1.65;;;;;;;22.85;53.52;98172.63;7314228;19;129419;-34
2023/10/25 09:55:05;;;;;;;36.55;2.10;;;;;;;22.83;55.13;98171.19;7313653;19;130227;-35
2023/10/25 09:57:32;;;;;;;52.05;2.95;;;;;;;22.82;53.64;98167.78;7313166;19;132794;-35
2023/10/25 09:59:59;;;;;;;37.75;2.13;;;;;;;22.78;53.99;98170.91;7314515;19;129628;-34
2023/10/25 10:02:42;;;;;;;73.82;3.80;;;;;;;22.62;55.26;98144.91;7312465;19;129421;-36
2023/10/25 10:05:18;;;;;;;63.60;3.22;;;;;;;22.76;55.51;98170.28;7314554;19;130091;-35
2023/10/25 10:07:47;;;;;;;32.23;1.80;;;;;;;22.76;55.14;98160.63;7312585;19;131068;-36
2023/10/25 10:10:20;;;;;;;28.08;1.58;;;;;;;22.75;55.46;98156.38;7313522;19;129621;-34
2023/10/25 10:12:46;;;;;;;9.95;0.77;;;;;;;22.74;54.96;98153.94;7311826;19;129427;-35
2023/10/25 10:15:14;;;;;;;50.23;2.63;;;;;;;22.76;54.81;98151.94;7313034;19;130690;-34
2023/10/25 10:17:44;;;;;;;65.95;3.42;;;;;;;22.73;55.57;98152.31;7312610;19;130372;-35
2023/10/25 10:20:23;;;;;;;33.20;1.83;;;;;;;22.66;52.88;98146.19;7313950;19;129040;-35
2023/10/25 10:23:05;;;;;;;29.17;1.52;;;;;;;22.79;52.22;98143.72;7312043;19;129285;-34
2023/10/25 10:25:49;;;;;;;44.60;2.50;;;;;;;22.85;51.61;98135.13;7313863;19;130297;-35
2023/10/25 10:28:14;;;;;;;60.92;3.10;;;;;;;22.92;50.79;98128.16;7312834;19;131019;-35
2023/10/25 10:30:41;;;;;;;44.63;2.40;;;;;;;22.98;51.95;98119.56;7311709;19;129380;-36
2023/10/25 10:33:13;;;;;;;63.67;3.08;;;;;;;22.90;53.36;98122.28;7311242;19;130183;-35
2023/10/25 10:35:47;;;;;;;32.63;1.75;;;;;;;22.81;53.62;98113.72;7313936;19;129196;-35
2023/10/25 10:38:12;;;;;;;27.25;1.60;;;;;;;22.83;53.28;98116.16;7313170;19;130512;-34
2023/10/25 10:40:38;;;;;;;27.60;1.60;;;;;;;22.80;53.81;98114.72;7310548;19;129453;-35
2023/10/25 10:43:06;;;;;;;63.60;3.10;;;;;;;22.80;53.93;98121.75;7310077;19;129404;-36
2023/10/25 10:45:32;;;;;;;63.85;3.38;;;;;;;22.77;54.36;98112.47;7313450;19;130402;-37
2023/10/25 10:48:17;;;;;;;5.85;0.68;;;;;;;22.78;54.92;98108.03;7313184;19;130468;-36
2023/10/25 10:50:43;;;;;;;25.10;1.55;;;;;;;22.77;54.59;98109.03;7313213;19;129135;-35
2023/10/25 10:53:09;;;;;;;26.60;1.53;;;;;;;22.63;54.26;98083.66;7312350;19;129290;-34
2023/10/25 10:55:34;;;;;;;85.55;4.40;;;;;;;22.74;54.93;98106.78;7312084;19;129430;-34
2023/10/25 10:58:00;;;;;;;24.58;1.40;;;;;;;22.73;55.06;98099.91;7313258;19;129567;-35
2023/10/25 11:00:25;;;;;;;43.90;2.63;;;;;;;22.75;54.56;98090.06;7312943;19;130018;-35
2023/10/25 11:02:52;;;;;;;41.23;2.07;;;;;;;22.75;54.95;98090.06;7309661;19;129143;-35
2023/10/25 11:05:22;;;;;;;71.00;3.45;;;;;;;22.69;54.31;98088.19;7313212;19;130316;-35
2023/10/25 11:07:49;;;;;;;33.22;1.83;;;;;;;22.70;52.77;98080.13;7313357;19;131263;-37
2023/10/25 11:10:16;;;;;;;36.45;1.98;;;;;;;22.79;52.27;98073.00;7310845;19;128891;-34
2023/10/25 11:12:42;;;;;;;28.95;1.52;;;;;;;22.88;51.73;98083.16;7309289;19;128955;-35
2023/10/25 11:15:10;;;;;;;68.97;3.17;;;;;;;22.89;51.35;98076.13;7310827;19;130213;-35